createdAt,value
2024-01-11T00:04:07.163Z,3.20
2024-01-11T00:09:09.514Z,3.20
2024-01-11T00:14:12.044Z,3.20
2024-01-11T00:19:14.398Z,3.20
2024-01-11T00:24:17.181Z,3.20
2024-01-11T00:29:19.435Z,3.20
2024-01-11T00:34:22.878Z,3.20
2024-01-11T00:39:25.571Z,3.20
2024-01-11T00:44:27.840Z,3.20
2024-01-11T00:49:30.143Z,3.20
2024-01-11T00:54:32.715Z,3.20
2024-01-11T00:59:34.963Z,3.20
2024-01-11T01:04:40.421Z,3.20
2024-01-11T01:09:42.817Z,3.20
2024-01-11T01:14:45.074Z,3.20
2024-01-11T01:19:47.288Z,3.20
2024-01-11T01:24:49.496Z,3.40
2024-01-11T01:29:51.768Z,3.20
2024-01-11T01:34:54.020Z,3.20
2024-01-11T01:39:56.238Z,3.20
2024-01-11T01:44:58.433Z,3.20
2024-01-11T01:50:00.756Z,3.20
2024-01-11T01:55:05.526Z,3.20
2024-01-11T02:00:13.822Z,3.20
2024-01-11T02:05:17.747Z,3.20
2024-01-11T02:10:20.563Z,3.20
2024-01-11T02:15:23.480Z,3.20
2024-01-11T02:20:25.778Z,3.10
2024-01-11T02:25:28.084Z,3.10
2024-01-11T02:30:30.358Z,3.00
2024-01-11T02:35:32.962Z,3.00
2024-01-11T02:40:36.496Z,3.00
2024-01-11T02:45:39.034Z,2.90
2024-01-11T02:50:41.206Z,2.90
2024-01-11T02:55:43.511Z,2.90
2024-01-11T03:00:45.751Z,2.80
2024-01-11T03:05:48.012Z,2.80
2024-01-11T03:10:50.276Z,2.70
2024-01-11T03:15:52.330Z,2.70
2024-01-11T03:20:54.658Z,2.60
2024-01-11T03:25:56.796Z,2.60
2024-01-11T03:30:58.955Z,2.60
2024-01-11T03:36:01.024Z,2.60
2024-01-11T03:41:03.932Z,2.60
2024-01-11T03:46:06.107Z,2.60
2024-01-11T03:51:08.285Z,2.60
2024-01-11T03:56:11.337Z,2.60
2024-01-11T04:01:13.528Z,2.60
2024-01-11T04:06:23.654Z,2.60
2024-01-11T04:11:29.504Z,2.60
2024-01-11T04:16:31.751Z,2.50
2024-01-11T04:21:33.891Z,2.60
2024-01-11T04:26:36.135Z,2.60
2024-01-11T04:31:38.233Z,2.60
2024-01-11T04:36:40.778Z,2.50
2024-01-11T04:41:43.050Z,2.50
2024-01-11T04:46:45.170Z,2.60
2024-01-11T04:51:47.240Z,2.50
2024-01-11T04:56:49.435Z,2.50
2024-01-11T05:01:51.559Z,2.40
2024-01-11T05:06:53.926Z,2.40
2024-01-11T05:11:56.004Z,2.40
2024-01-11T05:16:58.266Z,2.40
2024-01-11T05:22:00.467Z,2.30
2024-01-11T05:27:02.616Z,2.40
2024-01-11T05:32:05.234Z,2.40
2024-01-11T05:37:07.428Z,2.30
2024-01-11T05:42:09.561Z,2.30
2024-01-11T05:47:11.669Z,2.30
2024-01-11T05:52:13.834Z,2.30
2024-01-11T05:57:16.129Z,2.40
2024-01-11T06:02:18.500Z,2.30
2024-01-11T06:07:20.655Z,2.20
2024-01-11T06:12:22.744Z,2.20
2024-01-11T06:17:25.175Z,2.20
2024-01-11T06:22:27.339Z,2.10
2024-01-11T06:27:32.110Z,2.10
2024-01-11T06:32:34.326Z,2.10
2024-01-11T06:37:36.506Z,2.10
2024-01-11T06:42:38.644Z,2.00
2024-01-11T06:47:40.839Z,2.00
2024-01-11T06:52:43.037Z,1.90
2024-01-11T06:57:49.296Z,1.60
2024-01-11T07:02:54.808Z,1.90
2024-01-11T07:07:57.045Z,1.80
2024-01-11T07:12:59.243Z,1.80
2024-01-11T07:18:01.459Z,1.80
2024-01-11T07:23:03.787Z,1.80
2024-01-11T07:28:06.088Z,1.90
2024-01-11T07:33:09.575Z,1.90
2024-01-11T07:38:12.836Z,1.90
2024-01-11T07:43:15.692Z,1.90
2024-01-11T07:48:17.976Z,1.90
2024-01-11T07:53:20.167Z,1.90
2024-01-11T07:58:22.257Z,1.90
2024-01-11T08:03:24.560Z,1.90
2024-01-11T08:08:27.416Z,1.90
2024-01-11T08:13:32.229Z,1.90
2024-01-11T08:18:34.450Z,1.90
2024-01-11T08:23:36.759Z,1.90
2024-01-11T08:28:38.867Z,1.90
2024-01-11T08:33:41.669Z,2.00
2024-01-11T08:38:44.083Z,2.00
2024-01-11T08:43:46.272Z,2.00
2024-01-11T08:48:48.531Z,2.00
2024-01-11T08:53:50.749Z,2.10
2024-01-11T08:58:53.201Z,2.00
2024-01-11T09:03:55.365Z,2.00
2024-01-11T09:08:57.504Z,2.10
2024-01-11T09:14:00.643Z,2.10
2024-01-11T09:19:02.837Z,2.20
2024-01-11T09:24:05.572Z,2.20
2024-01-11T09:29:07.814Z,2.10
2024-01-11T09:34:10.142Z,2.10
2024-01-11T09:39:14.452Z,2.40
2024-01-11T09:44:16.788Z,2.20
2024-01-11T09:49:22.239Z,2.20
2024-01-11T09:54:26.159Z,2.30
2024-01-11T09:59:28.985Z,2.30
2024-01-11T10:04:31.313Z,2.30
2024-01-11T10:09:33.445Z,2.30
2024-01-11T10:14:35.661Z,2.40
2024-01-11T10:19:38.053Z,2.50
2024-01-11T10:24:40.842Z,2.60
2024-01-11T10:29:45.501Z,2.70
2024-01-11T10:34:47.672Z,2.70
2024-01-11T10:39:51.973Z,2.60
2024-01-11T10:44:59.427Z,2.60
2024-01-11T10:50:05.744Z,2.60
2024-01-11T10:55:08.483Z,2.70
2024-01-11T11:00:13.627Z,2.80
2024-01-11T11:05:18.261Z,2.80
2024-01-11T11:10:21.703Z,2.90
2024-01-11T11:15:25.149Z,2.90
2024-01-11T11:20:29.213Z,3.00
2024-01-11T11:25:32.126Z,3.00
2024-01-11T11:30:37.795Z,3.10
2024-01-11T11:35:40.090Z,3.10
2024-01-11T11:40:46.150Z,3.20
2024-01-11T11:45:49.539Z,3.30
2024-01-11T11:51:12.985Z,3.50
2024-01-11T11:56:18.338Z,3.40
2024-01-11T12:01:20.626Z,3.40
2024-01-11T12:06:28.655Z,3.40
2024-01-11T12:11:32.208Z,3.50
2024-01-11T12:16:34.396Z,3.60
2024-01-11T12:21:36.577Z,3.70
2024-01-11T12:26:39.474Z,3.80
2024-01-11T12:31:41.709Z,3.90
2024-01-11T12:36:44.235Z,3.90
2024-01-11T12:41:46.492Z,4.00
2024-01-11T12:46:53.780Z,4.10
2024-01-11T12:51:55.940Z,4.30
2024-01-11T12:56:58.553Z,4.40
2024-01-11T13:02:01.059Z,4.50
2024-01-11T13:07:03.264Z,4.60
2024-01-11T13:12:06.181Z,4.60
2024-01-11T13:17:09.012Z,4.70
2024-01-11T13:22:11.252Z,4.80
2024-01-11T13:27:13.406Z,5.10
2024-01-11T13:32:15.879Z,5.00
2024-01-11T13:37:18.493Z,5.10
2024-01-11T13:42:20.573Z,5.30
2024-01-11T13:47:22.781Z,5.30
2024-01-11T13:52:24.936Z,5.20
2024-01-11T13:57:26.990Z,5.30
2024-01-11T14:02:29.107Z,5.30
2024-01-11T14:07:31.809Z,5.40
2024-01-11T14:12:34.414Z,5.40
2024-01-11T14:17:36.610Z,5.40
2024-01-11T14:22:38.954Z,5.40
2024-01-11T14:27:42.397Z,5.40
2024-01-11T14:32:45.127Z,5.40
2024-01-11T14:37:48.929Z,5.50
2024-01-11T14:42:51.825Z,5.50
2024-01-11T14:47:54.035Z,5.50
2024-01-11T14:52:56.172Z,5.50
2024-01-11T14:57:59.550Z,5.50
2024-01-11T15:03:03.494Z,5.50
2024-01-11T15:08:06.259Z,5.50
2024-01-11T15:13:08.317Z,5.50
2024-01-11T15:18:10.571Z,5.50
2024-01-11T15:23:12.879Z,5.50
2024-01-11T15:28:14.993Z,5.50
2024-01-11T15:33:17.118Z,5.50
2024-01-11T15:38:19.450Z,5.50
2024-01-11T15:43:21.477Z,5.50
2024-01-11T15:48:23.708Z,5.50
2024-01-11T15:53:25.899Z,5.50
2024-01-11T15:58:27.937Z,5.50
2024-01-11T16:03:30.120Z,5.50
2024-01-11T16:08:32.206Z,5.50
2024-01-11T16:13:34.251Z,5.50
2024-01-11T16:18:38.316Z,5.50
2024-01-11T16:23:40.472Z,5.50
2024-01-11T16:28:42.554Z,5.50
2024-01-11T16:33:45.124Z,5.50
2024-01-11T16:38:47.619Z,5.50
2024-01-11T16:43:49.768Z,5.50
2024-01-11T16:48:52.426Z,5.50
2024-01-11T16:53:54.728Z,5.50
2024-01-11T16:58:56.889Z,5.50
2024-01-11T17:04:00.526Z,5.50
2024-01-11T17:09:04.015Z,5.50
2024-01-11T17:14:06.328Z,5.50
2024-01-11T17:19:08.478Z,5.60
2024-01-11T17:24:10.578Z,5.50
2024-01-11T17:29:15.356Z,5.50
2024-01-11T17:34:17.626Z,5.50
2024-01-11T17:39:19.768Z,5.50
2024-01-11T17:44:23.431Z,5.50
2024-01-11T17:49:25.533Z,5.50
2024-01-11T17:54:27.656Z,5.60
2024-01-11T17:59:30.190Z,5.60
2024-01-11T18:04:32.512Z,5.60
2024-01-11T18:09:37.469Z,5.80
2024-01-11T18:14:40.744Z,5.70
2024-01-11T18:19:43.569Z,5.60
2024-01-11T18:24:48.680Z,5.70
2024-01-11T18:29:50.930Z,5.70
2024-01-11T18:34:53.252Z,5.70
2024-01-11T18:39:55.393Z,5.70
2024-01-11T18:44:59.127Z,5.70
2024-01-11T18:50:02.968Z,5.70
2024-01-11T18:55:12.973Z,5.70
2024-01-11T19:00:20.725Z,5.80
2024-01-11T19:05:24.257Z,5.80
2024-01-11T19:10:27.621Z,5.80
2024-01-11T19:15:30.054Z,5.80
2024-01-11T19:20:32.859Z,5.70
2024-01-11T19:25:35.293Z,5.70
2024-01-11T19:30:38.659Z,5.70
2024-01-11T19:35:41.512Z,5.70
2024-01-11T19:40:43.637Z,5.80
2024-01-11T19:45:47.568Z,5.60
2024-01-11T19:50:49.736Z,5.50
2024-01-11T19:55:51.804Z,5.50
2024-01-11T20:00:53.969Z,5.50
2024-01-11T20:05:56.386Z,5.50
2024-01-11T20:10:58.571Z,5.50
2024-01-11T20:16:01.132Z,5.50
2024-01-11T20:21:03.720Z,5.40
2024-01-11T20:26:06.220Z,5.40
2024-01-11T20:31:10.535Z,5.40
2024-01-11T20:36:12.682Z,5.40
2024-01-11T20:41:15.930Z,5.40
2024-01-11T20:46:24.373Z,5.30
2024-01-11T20:51:27.690Z,5.30
2024-01-11T20:56:31.682Z,5.30
2024-01-11T21:01:33.906Z,5.30
2024-01-11T21:06:36.392Z,5.20
2024-01-11T21:11:38.677Z,5.20
2024-01-11T21:16:40.874Z,5.20
2024-01-11T21:21:45.063Z,5.20
2024-01-11T21:26:47.447Z,5.20
2024-01-11T21:31:49.682Z,5.10
2024-01-11T21:36:51.772Z,5.30
2024-01-11T21:41:53.894Z,5.10
2024-01-11T21:46:55.976Z,5.10
2024-01-11T21:51:58.092Z,5.20
2024-01-11T21:57:00.166Z,5.10
2024-01-11T22:02:02.271Z,5.00
2024-01-11T22:07:04.554Z,5.10
2024-01-11T22:12:07.201Z,5.00
2024-01-11T22:17:09.655Z,5.00
2024-01-11T22:22:11.784Z,5.00
2024-01-11T22:27:13.873Z,5.00
2024-01-11T22:32:16.100Z,5.00
2024-01-11T22:37:18.868Z,5.00
2024-01-11T22:42:20.968Z,5.10
2024-01-11T22:47:23.855Z,5.00
2024-01-11T22:52:26.009Z,5.00
2024-01-11T22:57:28.121Z,5.00
2024-01-11T23:02:30.159Z,5.00
2024-01-11T23:07:32.379Z,5.00
2024-01-11T23:12:34.801Z,4.90
2024-01-11T23:17:37.048Z,5.10
2024-01-11T23:22:39.620Z,4.90
2024-01-11T23:27:41.828Z,5.10
2024-01-11T23:32:44.049Z,4.90
2024-01-11T23:37:48.155Z,5.00
2024-01-11T23:42:50.451Z,5.00
2024-01-11T23:47:52.811Z,5.00
2024-01-11T23:52:55.027Z,5.00
2024-01-11T23:57:57.094Z,5.00
